Tuesday, September 30, 2014, 1:51 PM EDT
Back to Local

KLEB, Lebanon Municipal Airport

Location: Lebanon, NH, United States Lat: 43.633
Local Time: 1:51 PM EDT (17:51 GMT) Lon: -72.3
Time Zone: US/Eastern Elev: 597 ft

Show me the last for .
Show Coded

Time T Td Feel RH Dir Speed Gust Alt SLP Vis Weather Sky Remarks
2014-09-30 13:03 64 53 - 67 - Calm - 30.01 - 10 OVC015 None
2014-09-30 12:53 64 53 - 67 - Calm - 30.01 29.99 10 OVC014 None
2014-09-30 11:53 62 53 - 72 - Calm - 30.01 30.00 10 OVC012 None
2014-09-30 10:53 61 53 - 75 - Calm - 30.02 30.01 10 OVC012 None
2014-09-30 09:53 61 52 - 72 - Calm - 30.03 30.02 10 OVC011 None
2014-09-30 08:53 59 52 - 77 120° 3 - 30.04 30.02 10 OVC011 None
2014-09-30 07:53 59 53 - 80 50° 3 - 30.03 30.01 10 OVC010 6-hr Min Temp (8am): 57.9°F
6-hr Max Temp (8am): 60.1°F
2014-09-30 06:53 58 53 - 83 - Calm - 30.02 30.00 10 OVC013 None
2014-09-30 05:53 59 52 - 77 40° 3 - 30.01 29.99 10 OVC012 None
2014-09-30 04:53 58 53 - 83 - Calm - 30.01 29.99 10 OVC012 None
2014-09-30 03:53 59 53 - 80 210° 3 - 30.01 29.98 10 OVC014 None
2014-09-30 03:38 59 52 - 77 200° 3 - 30.00 - 10 OVC015 None
2014-09-30 02:53 59 52 - 77 160° 3 - 30.01 29.98 10 OVC013 None
2014-09-30 02:22 59 52 - 77 - Calm - 30.01 - 10 OVC014 None
2014-09-30 02:01 59 52 - 77 - Calm - 30.02 - 10 OVC015 None
2014-09-30 01:53 59 52 - 77 - Calm - 30.02 29.99 10 BKN014 OVC022 6-hr Min Temp (2am): 59.0°F
6-hr Max Temp (2am): 66.0°F
2014-09-30 00:53 59 52 - 77 - Calm - 30.02 30.00 10 OVC010 24-hr Min Temp (1am): 54.0°F
24-hr Max Temp (1am): 73.9°F
2014-09-29 23:53 59 52 - 77 120° 5 - 30.01 29.99 10 OVC010 None
2014-09-29 22:53 60 52 - 74 - Calm - 30.01 29.99 10 OVC011 None
2014-09-29 21:53 62 53 - 72 Variable 3 - 30.02 30.00 10 OVC013 None
2014-09-29 21:28 62 54 - 74 130° 6 - 30.01 - 10 BKN014 OVC031 None
2014-09-29 21:02 63 54 - 72 - Calm - 30.01 - 10 BKN015 OVC031 None
2014-09-29 20:53 64 54 - 69 Variable 6 - 30.00 29.99 10 SCT015 OVC032 None
2014-09-29 19:53 66 56 - 69 Variable 5 - 29.98 29.96 10 OVC035 6-hr Min Temp (8pm): 66.0°F
6-hr Max Temp (8pm): 73.9°F
2014-09-29 18:53 67 57 - 70 - Calm - 29.96 29.94 10 SCT036 None
2014-09-29 17:53 69 58 - 67 120° 3 - 29.95 29.93 10 CLR None
2014-09-29 16:53 69 61 - 75 - Calm - 29.95 29.93 10 BKN044 None
2014-09-29 15:53 71 62 76 73 - Calm - 29.94 29.92 10 CLR None
2014-09-29 14:53 74 57 77 55 - Calm - 29.95 29.92 10 CLR None
2014-09-29 13:53 74 58 77 57 - Calm - 29.95 29.93 10 CLR 6-hr Min Temp (2pm): 57.9°F
6-hr Max Temp (2pm): 73.9°F

Support USWX by starting your Amazon purchase here.